Time;durP1;ratioP1;P1;durP2;ratioP2;P2;SDS_P1;SDS_P2;PMS_P1;PMS_P2;Temp;Humidity;BMP_temperature;BMP_pressure;BME280_temperature;BME280_humidity;BME280_pressure;Samples;Min_cycle;Max_cycle;Signal;HPM_P1;HPM_P2
2023/09/24 00:01:56;;;;;;;14.70;5.93;;;;;;;9.43;100.00;102240.66;5048632;28;20028;-48
2023/09/24 00:04:22;;;;;;;10.50;6.32;;;;;;;9.45;100.00;102245.91;5047557;28;20017;-48
2023/09/24 00:06:48;;;;;;;8.60;6.32;;;;;;;9.45;100.00;102245.91;5046166;28;20053;-47
2023/09/24 00:09:14;;;;;;;12.10;6.57;;;;;;;9.42;100.00;102246.03;5052837;28;20029;-48
2023/09/24 00:11:39;;;;;;;11.77;7.13;;;;;;;9.42;100.00;102248.69;5045694;28;20013;-48
2023/09/24 00:14:05;;;;;;;8.23;5.95;;;;;;;9.40;100.00;102251.44;5044477;28;20167;-47
2023/09/24 00:16:31;;;;;;;10.38;6.97;;;;;;;9.38;100.00;102245.34;5049412;28;20020;-47
2023/09/24 00:18:56;;;;;;;10.02;6.75;;;;;;;9.40;100.00;102248.78;5051403;28;20115;-48
2023/09/24 00:21:21;;;;;;;11.73;7.47;;;;;;;9.39;100.00;102252.38;5050016;28;20070;-48
2023/09/24 00:23:47;;;;;;;10.82;7.22;;;;;;;9.36;100.00;102256.94;5042528;28;20175;-48
2023/09/24 00:26:12;;;;;;;13.30;7.00;;;;;;;9.33;100.00;102257.13;5044572;28;20025;-48
2023/09/24 00:28:38;;;;;;;8.93;7.53;;;;;;;9.35;100.00;102257.91;5051701;28;20036;-49
2023/09/24 00:31:03;;;;;;;9.40;7.07;;;;;;;9.33;100.00;102257.97;5048167;28;20108;-47
2023/09/24 00:33:29;;;;;;;10.85;7.57;;;;;;;9.32;100.00;102256.25;5046934;28;20025;-48
2023/09/24 00:35:57;;;;;;;11.75;7.75;;;;;;;9.31;100.00;102267.81;5044510;28;20025;-48
2023/09/24 00:38:22;;;;;;;12.18;8.25;;;;;;;9.28;100.00;102265.28;5047986;28;20025;-49
2023/09/24 00:40:47;;;;;;;11.48;7.85;;;;;;;9.29;100.00;102274.09;5047035;28;20029;-48
2023/09/24 00:43:31;;;;;;;10.95;7.32;;;;;;;9.29;100.00;102272.28;5051835;28;20410;-48
2023/09/24 00:45:57;;;;;;;16.38;8.43;;;;;;;9.28;100.00;102277.69;5051879;28;20084;-48
2023/09/24 00:48:28;;;;;;;10.07;7.60;;;;;;;9.24;100.00;102271.66;5051489;28;20437;-48
2023/09/24 00:51:17;;;;;;;10.27;8.25;;;;;;;9.22;100.00;102284.13;5048395;28;20029;-48
2023/09/24 00:53:43;;;;;;;11.75;7.95;;;;;;;9.20;100.00;102286.84;5049892;28;20033;-48
2023/09/24 00:56:09;;;;;;;14.63;8.57;;;;;;;9.22;100.00;102286.78;5054694;28;20140;-48
2023/09/24 00:58:37;;;;;;;11.35;8.18;;;;;;;9.17;100.00;102286.16;5053763;28;20107;-48
2023/09/24 01:01:06;;;;;;;11.40;8.63;;;;;;;9.19;100.00;102282.50;5049755;28;20037;-47
2023/09/24 01:03:32;;;;;;;13.07;8.55;;;;;;;9.18;100.00;102278.13;5046927;28;20403;-47
2023/09/24 01:05:57;;;;;;;11.50;8.32;;;;;;;9.16;100.00;102272.03;5049111;28;20033;-48
2023/09/24 01:08:24;;;;;;;11.55;8.60;;;;;;;9.15;100.00;102274.75;5051306;28;20028;-48
2023/09/24 01:10:50;;;;;;;13.90;8.63;;;;;;;9.13;100.00;102266.88;5047248;28;20021;-48
2023/09/24 01:13:20;;;;;;;10.10;8.23;;;;;;;9.10;100.00;102274.13;5052779;28;20083;-48
2023/09/24 01:15:52;;;;;;;11.32;8.95;;;;;;;9.08;100.00;102277.69;5053799;28;20028;-48
2023/09/24 01:18:19;;;;;;;14.85;9.20;;;;;;;9.06;100.00;102276.06;5049638;28;20040;-47
2023/09/24 01:20:45;;;;;;;13.88;8.32;;;;;;;9.03;100.00;102277.06;5047911;28;20060;-48
2023/09/24 01:23:14;;;;;;;14.60;9.25;;;;;;;9.04;100.00;102276.13;5053002;28;20061;-48
2023/09/24 01:25:40;;;;;;;13.47;9.30;;;;;;;9.04;100.00;102280.56;5046267;28;20391;-47
2023/09/24 01:28:06;;;;;;;10.75;8.95;;;;;;;9.02;100.00;102282.44;5049504;28;20268;-48
2023/09/24 01:30:33;;;;;;;11.05;9.05;;;;;;;8.98;100.00;102276.41;5053392;28;20032;-47
2023/09/24 01:32:58;;;;;;;11.43;9.10;;;;;;;9.01;100.00;102278.94;5050921;28;20032;-48
2023/09/24 01:35:35;;;;;;;12.90;9.32;;;;;;;8.97;100.00;102282.63;5045947;28;20041;-47
2023/09/24 01:38:06;;;;;;;12.32;8.98;;;;;;;8.94;100.00;102277.47;5048924;28;20065;-47
2023/09/24 01:40:37;;;;;;;11.90;8.68;;;;;;;8.92;100.00;102279.34;5045860;28;20032;-49
2023/09/24 01:43:07;;;;;;;13.15;9.18;;;;;;;8.91;100.00;102280.28;5051266;28;20417;-48
2023/09/24 01:45:34;;;;;;;11.23;9.02;;;;;;;8.88;100.00;102275.13;5053956;28;20052;-48
2023/09/24 01:48:00;;;;;;;11.63;9.32;;;;;;;8.88;100.00;102270.69;5050019;28;20021;-48
2023/09/24 01:50:28;;;;;;;11.80;8.88;;;;;;;8.86;100.00;102275.22;5045609;28;20028;-47
2023/09/24 01:52:57;;;;;;;12.95;9.50;;;;;;;8.87;100.00;102276.06;5046938;28;20029;-48
2023/09/24 01:55:23;;;;;;;15.43;9.52;;;;;;;8.84;100.00;102279.72;5048263;28;20494;-47
2023/09/24 01:57:51;;;;;;;13.18;9.13;;;;;;;8.81;100.00;102271.03;5044773;28;20036;-48
2023/09/24 02:00:26;;;;;;;12.40;8.70;;;;;;;8.77;100.00;102266.81;5047150;28;20017;-48
2023/09/24 02:02:54;;;;;;;11.18;10.00;;;;;;;8.78;100.00;102274.69;5048466;28;20441;-48
2023/09/24 02:05:20;;;;;;;12.85;9.00;;;;;;;8.76;100.00;102271.25;5047563;28;20213;-48
2023/09/24 02:07:49;;;;;;;12.65;9.07;;;;;;;8.75;100.00;102274.84;5046160;28;20025;-48
2023/09/24 02:10:18;;;;;;;12.38;8.95;;;;;;;8.74;100.00;102269.59;5046179;28;20489;-48
2023/09/24 02:12:45;;;;;;;;;;;;;;;8.81;100.00;102271.91;5047437;28;20048;-48
2023/09/24 02:15:10;;;;;;;10.43;8.38;;;;;;;8.71;100.00;102265.31;5047073;28;20287;-49
2023/09/24 02:17:40;;;;;;;12.25;8.90;;;;;;;8.70;100.00;102280.34;5045535;28;20029;-48
2023/09/24 02:20:10;;;;;;;11.00;9.43;;;;;;;8.68;100.00;102284.00;5044965;28;20037;-49
2023/09/24 02:22:36;;;;;;;12.07;9.23;;;;;;;8.68;100.00;102286.66;5051057;28;20041;-48
2023/09/24 02:25:02;;;;;;;10.02;8.73;;;;;;;8.65;100.00;102287.63;5044535;28;20087;-48
2023/09/24 02:27:27;;;;;;;11.30;9.35;;;;;;;8.64;100.00;102291.22;5050092;28;20039;-48
2023/09/24 02:29:53;;;;;;;10.43;9.15;;;;;;;8.63;100.00;102299.25;5046595;28;20116;-48
2023/09/24 02:32:18;;;;;;;12.88;8.90;;;;;;;8.60;100.00;102302.88;5047528;28;20029;-48
2023/09/24 02:34:44;;;;;;;13.40;9.05;;;;;;;8.58;100.00;102295.94;5046213;28;20099;-48
2023/09/24 02:37:10;;;;;;;13.30;8.88;;;;;;;8.57;100.00;102297.72;5051677;28;20123;-48
2023/09/24 02:39:35;;;;;;;12.15;8.90;;;;;;;8.54;100.00;102299.66;5051983;28;20025;-48
2023/09/24 02:42:01;;;;;;;10.75;9.13;;;;;;;8.50;100.00;102293.63;5051295;28;20056;-48
2023/09/24 02:44:26;;;;;;;9.73;8.45;;;;;;;8.49;100.00;102300.72;5043304;28;20036;-49
2023/09/24 02:46:51;;;;;;;12.60;9.20;;;;;;;8.46;100.00;102295.56;5047800;28;20037;-48
2023/09/24 02:49:17;;;;;;;14.27;8.75;;;;;;;8.45;100.00;102303.56;5045549;28;20075;-48
2023/09/24 02:51:43;;;;;;;15.50;9.10;;;;;;;8.45;100.00;102295.63;5046957;28;20412;-47
2023/09/24 02:54:08;;;;;;;14.02;9.23;;;;;;;8.42;100.00;102303.66;5047637;28;20072;-48
2023/09/24 02:56:34;;;;;;;10.82;8.00;;;;;;;8.44;100.00;102293.88;5047974;28;20116;-48
2023/09/24 02:58:59;;;;;;;14.80;8.85;;;;;;;8.42;100.00;102299.22;5047922;28;20374;-48
2023/09/24 03:01:25;;;;;;;13.18;8.70;;;;;;;8.41;100.00;102294.00;5047407;28;20037;-49
2023/09/24 03:03:50;;;;;;;12.20;8.35;;;;;;;8.37;100.00;102295.06;5043689;28;20571;-48
2023/09/24 03:06:16;;;;;;;11.20;8.68;;;;;;;8.37;100.00;102301.22;5044609;28;20031;-48
2023/09/24 03:08:42;;;;;;;12.88;8.18;;;;;;;8.33;100.00;102299.66;5045535;28;20117;-48
2023/09/24 03:11:16;;;;;;;11.80;7.82;;;;;;;8.33;100.00;102302.28;5045541;28;20103;-49
2023/09/24 03:13:41;;;;;;;11.35;8.07;;;;;;;8.31;100.00;102304.13;5050714;28;20032;-49
2023/09/24 03:16:07;;;;;;;12.77;8.45;;;;;;;8.31;100.00;102299.72;5050351;28;20029;-49
2023/09/24 03:18:33;;;;;;;13.88;8.95;;;;;;;8.31;100.00;102307.66;5045493;28;20051;-48
2023/09/24 03:20:58;;;;;;;9.98;8.88;;;;;;;8.30;100.00;102308.56;5050950;28;20032;-48
2023/09/24 03:23:24;;;;;;;13.07;8.55;;;;;;;8.30;100.00;102311.22;5047218;28;20033;-48
2023/09/24 03:25:49;;;;;;;12.57;8.82;;;;;;;8.29;100.00;102314.81;5043808;28;20112;-48
2023/09/24 03:28:15;;;;;;;14.05;8.60;;;;;;;8.27;100.00;102311.34;5044065;28;20030;-49
2023/09/24 03:30:40;;;;;;;11.20;8.20;;;;;;;8.24;100.00;102316.75;5047539;28;20524;-48
2023/09/24 03:33:06;;;;;;;12.10;8.30;;;;;;;8.22;100.00;102313.31;5044191;28;20033;-49
2023/09/24 03:35:31;;;;;;;11.07;8.20;;;;;;;8.24;100.00;102315.91;5044815;28;20028;-50
2023/09/24 03:37:56;;;;;;;13.43;7.82;;;;;;;8.21;100.00;102322.22;5043642;28;20034;-49
2023/09/24 03:40:29;;;;;;;10.23;7.95;;;;;;;8.21;100.00;102326.63;5046342;28;20387;-48
2023/09/24 03:42:55;;;;;;;13.23;8.30;;;;;;;8.19;100.00;102331.97;5043615;28;20045;-47
2023/09/24 03:45:23;;;;;;;10.20;7.47;;;;;;;8.20;100.00;102330.22;5045722;28;20029;-48
2023/09/24 03:47:48;;;;;;;9.93;7.75;;;;;;;8.17;100.00;102331.19;5043576;28;20033;-48
2023/09/24 03:50:17;;;;;;;9.77;7.68;;;;;;;8.12;100.00;102333.19;5046041;28;20029;-48
2023/09/24 03:52:52;;;;;;;13.77;8.13;;;;;;;8.12;100.00;102334.03;5046722;28;20074;-48
2023/09/24 03:55:19;;;;;;;10.15;8.30;;;;;;;8.11;100.00;102334.09;5047752;28;20032;-48
2023/09/24 03:57:47;;;;;;;8.82;7.32;;;;;;;8.06;100.00;102330.78;5051175;28;20075;-48
2023/09/24 04:00:15;;;;;;;9.23;7.47;;;;;;;8.05;100.00;102337.03;5051700;28;20017;-48
2023/09/24 04:02:41;;;;;;;12.80;7.55;;;;;;;8.05;100.00;102331.72;5043408;28;20052;-48
2023/09/24 04:05:14;;;;;;;16.65;8.43;;;;;;;8.02;100.00;102340.63;5052126;28;20013;-48
2023/09/24 04:07:40;;;;;;;12.75;7.75;;;;;;;8.01;100.00;102338.06;5043517;28;20393;-48
2023/09/24 04:10:06;;;;;;;11.40;7.25;;;;;;;8.00;100.00;102342.50;5045428;28;20025;-48
2023/09/24 04:12:34;;;;;;;12.45;7.55;;;;;;;7.98;100.00;102336.41;5044598;28;20030;-48
2023/09/24 04:15:04;;;;;;;9.80;7.30;;;;;;;8.01;100.00;102346.00;5046640;28;20033;-48
2023/09/24 04:17:29;;;;;;;12.43;7.20;;;;;;;8.00;100.00;102346.94;5047414;28;20021;-48
2023/09/24 04:19:54;;;;;;;10.15;7.18;;;;;;;7.98;100.00;102344.34;5052774;28;20044;-49
2023/09/24 04:22:22;;;;;;;8.95;6.95;;;;;;;7.94;100.00;102348.91;5053325;28;20057;-48
2023/09/24 04:24:50;;;;;;;8.10;7.03;;;;;;;7.92;100.00;102347.25;5051077;28;20111;-48
2023/09/24 04:27:15;;;;;;;11.90;7.17;;;;;;;7.93;100.00;102348.97;5054961;28;20086;-48
2023/09/24 04:29:41;;;;;;;10.52;7.70;;;;;;;7.92;100.00;102353.38;5052871;28;20021;-47
2023/09/24 04:32:06;;;;;;;11.93;6.80;;;;;;;7.89;100.00;102353.53;5053385;28;20455;-48
2023/09/24 04:34:32;;;;;;;11.82;6.78;;;;;;;7.89;100.00;102356.19;5048106;28;20091;-48
2023/09/24 04:36:57;;;;;;;9.55;6.70;;;;;;;7.89;100.00;102358.84;5049914;28;20060;-48
2023/09/24 04:39:24;;;;;;;9.55;7.15;;;;;;;7.87;100.00;102357.16;5045959;28;20112;-48
2023/09/24 04:41:49;;;;;;;9.23;6.95;;;;;;;7.87;100.00;102355.38;5051308;28;20112;-49
2023/09/24 04:44:14;;;;;;;7.35;6.60;;;;;;;7.89;100.00;102358.84;5048980;28;20127;-48
2023/09/24 04:46:39;;;;;;;12.88;7.32;;;;;;;7.88;100.00;102357.09;5051689;28;20534;-48
2023/09/24 04:49:05;;;;;;;10.90;6.88;;;;;;;7.88;100.00;102353.59;5053668;28;20075;-48
2023/09/24 04:51:32;;;;;;;11.38;7.07;;;;;;;7.88;100.00;102356.25;5049241;28;20041;-48
2023/09/24 04:53:59;;;;;;;9.55;6.65;;;;;;;7.90;100.00;102357.88;5048498;28;20037;-48
2023/09/24 04:56:24;;;;;;;11.68;6.93;;;;;;;7.85;100.00;102356.38;5048391;28;20429;-48
2023/09/24 04:58:50;;;;;;;12.88;6.68;;;;;;;7.86;100.00;102358.06;5046701;28;20108;-48
2023/09/24 05:01:15;;;;;;;10.88;7.75;;;;;;;7.86;100.00;102361.59;5048963;28;20045;-48
2023/09/24 05:03:42;;;;;;;11.40;6.28;;;;;;;7.85;100.00;102359.00;5049169;28;20025;-47
2023/09/24 05:06:07;;;;;;;9.27;6.57;;;;;;;7.83;100.00;102359.06;5052170;28;20087;-48
2023/09/24 05:08:32;;;;;;;8.23;6.40;;;;;;;7.82;100.00;102359.97;5050351;28;20033;-48
2023/09/24 05:10:59;;;;;;;10.82;6.43;;;;;;;7.81;100.00;102358.28;5053122;28;20033;-48
2023/09/24 05:13:24;;;;;;;12.90;6.28;;;;;;;7.82;100.00;102365.28;5049337;28;20021;-48
2023/09/24 05:15:53;;;;;;;10.27;6.55;;;;;;;7.80;100.00;102359.19;5049985;28;20024;-48
2023/09/24 05:18:19;;;;;;;7.57;5.97;;;;;;;7.81;100.00;102360.94;5046812;28;20068;-47
2023/09/24 05:20:44;;;;;;;10.38;6.30;;;;;;;7.79;100.00;102365.41;5052279;28;20064;-47
2023/09/24 05:23:09;;;;;;;10.93;6.55;;;;;;;7.80;100.00;102372.41;5049340;28;20021;-48
2023/09/24 05:25:36;;;;;;;11.95;6.60;;;;;;;7.80;100.00;102374.22;5050741;28;20481;-48
2023/09/24 05:28:02;;;;;;;9.90;6.70;;;;;;;7.78;100.00;102383.06;5046383;28;20021;-48
2023/09/24 05:30:27;;;;;;;10.90;6.40;;;;;;;7.77;100.00;102385.75;5046627;28;20506;-48
2023/09/24 05:32:53;;;;;;;8.68;5.82;;;;;;;7.78;100.00;102387.50;5050406;28;20116;-50
2023/09/24 05:35:18;;;;;;;8.75;5.72;;;;;;;7.79;100.00;102389.19;5043454;28;20086;-48
2023/09/24 05:37:43;;;;;;;10.98;6.43;;;;;;;7.79;100.00;102397.13;5040705;28;20045;-49
2023/09/24 05:40:10;;;;;;;9.35;5.97;;;;;;;7.78;100.00;102406.00;5049909;28;20122;-49
2023/09/24 05:42:35;;;;;;;8.02;5.82;;;;;;;7.77;100.00;102402.47;5047552;28;20046;-49
2023/09/24 05:45:01;;;;;;;10.95;6.70;;;;;;;7.78;100.00;102404.22;5042013;28;20105;-49
2023/09/24 05:47:27;;;;;;;9.05;6.10;;;;;;;7.81;100.00;102415.59;5044336;28;20450;-49
2023/09/24 05:49:53;;;;;;;11.27;6.18;;;;;;;7.79;100.00;102415.66;5047853;28;20033;-49
2023/09/24 05:52:18;;;;;;;11.02;6.40;;;;;;;7.77;100.00;102421.00;5045607;28;20066;-48
2023/09/24 05:54:43;;;;;;;11.27;6.07;;;;;;;7.82;100.00;102420.81;5047303;28;20040;-47
2023/09/24 05:57:10;;;;;;;11.35;6.15;;;;;;;7.81;100.00;102423.53;5046739;28;20029;-51
2023/09/24 05:59:35;;;;;;;12.07;6.50;;;;;;;7.85;100.00;102422.50;5052831;28;20060;-51
2023/09/24 06:02:01;;;;;;;10.52;6.85;;;;;;;7.83;100.00;102421.66;5050770;28;20485;-51
2023/09/24 06:04:26;;;;;;;9.25;6.45;;;;;;;7.83;100.00;102419.91;5050385;28;20025;-50
2023/09/24 06:06:52;;;;;;;10.10;6.25;;;;;;;7.83;100.00;102430.50;5045002;28;20021;-51
2023/09/24 06:09:17;;;;;;;8.48;6.20;;;;;;;7.86;100.00;102424.19;5040908;28;20087;-50
2023/09/24 06:11:44;;;;;;;11.32;6.25;;;;;;;7.88;100.00;102420.59;5046419;28;20171;-50
2023/09/24 06:14:10;;;;;;;10.63;6.60;;;;;;;7.91;100.00;102415.19;5042280;28;20025;-51
2023/09/24 06:16:36;;;;;;;12.23;6.70;;;;;;;7.94;100.00;102420.34;5047604;28;20017;-51
2023/09/24 06:19:02;;;;;;;9.48;6.95;;;;;;;7.96;100.00;102422.94;5045346;28;20033;-52
2023/09/24 06:21:27;;;;;;;12.82;6.25;;;;;;;7.99;100.00;102422.78;5047731;28;20505;-51
2023/09/24 06:23:54;;;;;;;9.65;6.15;;;;;;;8.02;100.00;102427.97;5051005;28;20021;-52
2023/09/24 06:26:20;;;;;;;11.07;5.32;;;;;;;8.05;100.00;102424.34;5044501;28;20055;-50
2023/09/24 06:28:45;;;;;;;14.70;6.30;;;;;;;8.08;100.00;102429.50;5051252;28;20036;-51
2023/09/24 06:31:11;;;;;;;12.35;5.97;;;;;;;8.12;100.00;102428.44;5048975;28;20040;-53
2023/09/24 06:33:36;;;;;;;13.93;7.15;;;;;;;8.15;100.00;102428.34;5046298;28;20029;-51
2023/09/24 06:36:05;;;;;;;14.02;6.13;;;;;;;8.17;100.00;102426.47;5050644;28;20081;-50
2023/09/24 06:38:32;;;;;;;10.63;5.90;;;;;;;8.23;100.00;102431.53;5048939;28;20494;-51
2023/09/24 06:41:02;;;;;;;12.57;6.22;;;;;;;8.24;100.00;102433.22;5044809;28;20032;-54
2023/09/24 06:43:28;;;;;;;10.30;5.80;;;;;;;8.29;100.00;102430.41;5046555;28;20128;-51
2023/09/24 06:45:54;;;;;;;13.85;5.88;;;;;;;8.33;100.00;102435.50;5046259;28;20040;-53
2023/09/24 06:48:23;;;;;;;9.43;5.90;;;;;;;8.36;100.00;102442.47;5049072;28;20383;-51
2023/09/24 06:50:49;;;;;;;12.47;5.90;;;;;;;8.41;100.00;102442.25;5046308;28;20391;-50
2023/09/24 06:53:15;;;;;;;10.75;5.60;;;;;;;8.45;100.00;102449.19;5046759;28;20120;-51
2023/09/24 06:55:40;;;;;;;11.90;5.95;;;;;;;8.49;100.00;102445.47;5048421;28;20025;-53
2023/09/24 06:58:06;;;;;;;11.07;6.10;;;;;;;8.54;100.00;102443.50;5042253;28;20059;-54
2023/09/24 07:00:32;;;;;;;11.80;5.47;;;;;;;8.61;100.00;102446.75;5048235;28;20143;-52
2023/09/24 07:02:57;;;;;;;15.30;6.32;;;;;;;8.65;100.00;102446.56;5044542;28;20120;-52
2023/09/24 07:05:22;;;;;;;12.38;6.10;;;;;;;8.69;100.00;102441.97;5049715;28;20025;-53
2023/09/24 07:07:48;;;;;;;11.30;6.30;;;;;;;8.77;100.00;102449.63;5046019;28;20120;-52
2023/09/24 07:10:14;;;;;;;14.73;6.40;;;;;;;8.83;100.00;102444.91;5045664;28;20025;-51
2023/09/24 07:12:40;;;;;;;12.27;6.20;;;;;;;8.88;100.00;102442.91;5048828;28;20021;-51
2023/09/24 07:15:06;;;;;;;9.13;5.85;;;;;;;8.98;100.00;102453.13;5044307;28;20033;-51
2023/09/24 07:17:32;;;;;;;9.80;5.47;;;;;;;9.06;100.00;102441.25;5048861;28;20036;-52
2023/09/24 07:19:58;;;;;;;9.73;5.55;;;;;;;9.15;100.00;102449.72;5044267;28;20126;-52
2023/09/24 07:22:25;;;;;;;16.23;5.75;;;;;;;9.25;100.00;102448.38;5048056;28;20071;-51
2023/09/24 07:24:50;;;;;;;14.00;5.97;;;;;;;9.38;100.00;102452.19;5048164;28;20213;-52
2023/09/24 07:27:16;;;;;;;11.90;6.10;;;;;;;9.54;100.00;102457.66;5048069;28;20082;-51
2023/09/24 07:29:42;;;;;;;10.98;5.60;;;;;;;9.68;100.00;102451.69;5046382;28;20032;-50
2023/09/24 07:32:08;;;;;;;13.43;6.00;;;;;;;9.91;100.00;102461.22;5049402;28;20044;-52
2023/09/24 07:34:33;;;;;;;14.27;5.68;;;;;;;10.07;100.00;102463.13;5044729;28;20509;-51
2023/09/24 07:36:58;;;;;;;11.77;5.78;;;;;;;10.26;100.00;102468.38;5047735;28;20070;-51
2023/09/24 07:39:24;;;;;;;11.40;5.18;;;;;;;10.44;100.00;102467.53;5046367;28;20105;-52
2023/09/24 07:41:49;;;;;;;7.68;4.80;;;;;;;10.64;100.00;102460.34;5046688;28;20035;-51
2023/09/24 07:44:15;;;;;;;14.52;5.47;;;;;;;10.84;100.00;102469.94;5048219;28;20072;-51
2023/09/24 07:46:40;;;;;;;11.63;4.90;;;;;;;11.07;100.00;102474.06;5045625;28;20152;-52
2023/09/24 07:49:06;;;;;;;8.45;4.93;;;;;;;11.28;100.00;102466.75;5042082;28;20099;-50
2023/09/24 07:51:31;;;;;;;12.45;5.00;;;;;;;11.43;100.00;102481.03;5048514;28;20301;-51
2023/09/24 07:53:56;;;;;;;7.55;4.25;;;;;;;11.59;100.00;102481.03;5047990;28;20056;-51
2023/09/24 07:56:22;;;;;;;10.32;4.47;;;;;;;11.75;100.00;102479.25;5044646;28;20120;-51
2023/09/24 07:58:47;;;;;;;10.93;5.13;;;;;;;11.90;100.00;102482.00;5045181;28;20431;-51
2023/09/24 08:01:18;;;;;;;10.52;4.78;;;;;;;12.00;100.00;102483.25;5047206;28;20033;-54
2023/09/24 08:03:45;;;;;;;11.10;4.82;;;;;;;12.16;100.00;102484.09;5046855;28;20029;-51
2023/09/24 08:06:10;;;;;;;9.30;4.22;;;;;;;12.26;100.00;102481.75;5047697;28;20025;-51
2023/09/24 08:08:36;;;;;;;9.60;4.32;;;;;;;12.51;100.00;102472.34;5049604;28;20039;-52
2023/09/24 08:11:02;;;;;;;10.55;4.80;;;;;;;12.60;100.00;102474.47;5047205;28;20021;-51
2023/09/24 08:13:28;;;;;;;12.13;5.03;;;;;;;12.81;100.00;102477.66;5050605;28;20036;-50
2023/09/24 08:15:56;;;;;;;10.30;4.75;;;;;;;13.03;100.00;102473.69;5050213;28;20036;-51
2023/09/24 08:18:22;;;;;;;11.43;4.28;;;;;;;13.19;100.00;102471.81;5048973;28;20033;-51
2023/09/24 08:20:49;;;;;;;12.48;4.38;;;;;;;13.48;100.00;102478.00;5050608;28;20433;-53
2023/09/24 08:23:14;;;;;;;9.80;4.60;;;;;;;13.66;100.00;102475.16;5044189;28;20033;-51
2023/09/24 08:25:40;;;;;;;7.55;3.60;;;;;;;13.82;100.00;102477.69;5042179;28;20040;-52
2023/09/24 08:28:06;;;;;;;9.10;3.40;;;;;;;14.03;100.00;102478.13;5045563;28;20029;-52
2023/09/24 08:30:32;;;;;;;9.20;3.40;;;;;;;14.19;99.76;102473.47;5045827;28;20025;-51
2023/09/24 08:32:58;;;;;;;7.80;3.10;;;;;;;14.40;100.00;102483.69;5049926;28;20072;-51
2023/09/24 08:35:24;;;;;;;6.70;3.28;;;;;;;14.59;98.93;102489.56;5045901;28;20026;-51
2023/09/24 08:37:50;;;;;;;9.45;3.13;;;;;;;14.79;97.75;102487.38;5044450;28;20043;-50
2023/09/24 08:40:18;;;;;;;5.35;2.90;;;;;;;14.98;97.00;102487.78;5049328;28;20021;-51
2023/09/24 08:42:48;;;;;;;6.43;2.80;;;;;;;15.18;97.09;102494.44;5045894;28;20489;-51
2023/09/24 08:45:16;;;;;;;4.35;2.38;;;;;;;15.39;98.11;102485.00;5055002;28;20294;-52
2023/09/24 08:47:42;;;;;;;5.97;2.17;;;;;;;15.71;95.73;102491.59;5047229;28;20470;-51
2023/09/24 08:50:08;;;;;;;5.82;2.40;;;;;;;15.91;95.58;102489.31;5044102;28;20083;-51
2023/09/24 08:52:37;;;;;;;5.90;2.45;;;;;;;16.12;91.27;102494.06;5040349;28;20033;-54
2023/09/24 08:55:05;;;;;;;4.07;2.05;;;;;;;16.37;91.17;102493.97;5049645;28;20029;-53
2023/09/24 08:57:32;;;;;;;8.40;2.58;;;;;;;16.53;87.98;102499.00;5048944;28;20025;-51
2023/09/24 08:59:57;;;;;;;5.53;2.38;;;;;;;16.76;91.02;102491.88;5046771;28;20029;-51
2023/09/24 09:02:22;;;;;;;5.20;2.40;;;;;;;16.88;84.92;102492.81;5050095;28;20690;-50
2023/09/24 09:04:49;;;;;;;3.53;1.80;;;;;;;17.12;86.29;102491.88;5053893;28;20032;-51
2023/09/24 09:07:15;;;;;;;8.10;2.30;;;;;;;17.35;84.80;102487.38;5047251;28;20037;-50
2023/09/24 09:09:41;;;;;;;4.38;1.75;;;;;;;17.41;83.16;102494.94;5050809;28;20433;-51
2023/09/24 09:12:17;;;;;;;10.30;2.05;;;;;;;17.50;83.59;102491.53;5052827;28;20056;-51
2023/09/24 09:14:43;;;;;;;5.32;1.80;;;;;;;17.72;81.11;102484.44;5037579;28;20044;-54
2023/09/24 09:17:08;;;;;;;4.10;2.17;;;;;;;17.79;77.39;102488.31;5043043;28;20033;-51
2023/09/24 09:19:56;;;;;;;3.30;1.65;;;;;;;18.01;83.98;102482.06;5052311;28;20107;-51
2023/09/24 09:22:23;;;;;;;6.53;1.90;;;;;;;18.26;80.70;102472.81;5046025;28;20056;-51
2023/09/24 09:25:00;;;;;;;3.75;2.00;;;;;;;18.33;77.08;102475.00;5053517;28;20039;-51
2023/09/24 09:27:31;;;;;;;4.80;1.70;;;;;;;18.47;79.07;102467.47;5050771;28;20036;-51
2023/09/24 09:30:16;;;;;;;6.05;2.00;;;;;;;18.67;80.02;102454.16;5052557;28;20028;-51
2023/09/24 09:32:43;;;;;;;3.72;1.67;;;;;;;18.89;76.50;102455.88;5051735;28;20032;-52
2023/09/24 09:35:09;;;;;;;4.15;2.00;;;;;;;19.10;78.05;102455.00;5052612;28;20039;-51
2023/09/24 09:37:35;;;;;;;3.28;1.40;;;;;;;19.17;70.33;102445.41;5050624;28;20111;-51
2023/09/24 09:40:00;;;;;;;6.82;1.60;;;;;;;19.29;73.00;102444.31;5050906;28;20033;-51
2023/09/24 09:42:31;;;;;;;3.22;1.45;;;;;;;19.39;70.72;102449.75;5052594;28;20563;-51
2023/09/24 09:45:01;;;;;;;6.25;1.83;;;;;;;19.46;70.07;102441.97;5049573;28;20032;-52
2023/09/24 09:47:28;;;;;;;4.05;1.55;;;;;;;19.60;69.19;102441.56;5052954;28;20021;-51
2023/09/24 09:49:59;;;;;;;4.93;1.52;;;;;;;19.65;68.91;102441.16;5047884;28;20033;-50
2023/09/24 09:52:31;;;;;;;3.67;1.45;;;;;;;19.82;71.19;102436.97;5049028;28;20029;-53
2023/09/24 09:54:59;;;;;;;5.00;1.70;;;;;;;19.91;67.08;102445.06;5052761;28;20033;-52
2023/09/24 09:57:25;;;;;;;4.97;1.80;;;;;;;20.07;67.83;102439.13;5043989;28;20025;-50
2023/09/24 09:59:52;;;;;;;3.28;1.48;;;;;;;20.27;66.95;102434.59;5045460;28;20040;-53
2023/09/24 10:02:18;;;;;;;5.45;1.67;;;;;;;20.48;65.75;102433.56;5046809;28;20029;-52
2023/09/24 10:04:45;;;;;;;4.55;1.60;;;;;;;20.65;65.29;102429.28;5047516;28;20047;-51
2023/09/24 10:07:11;;;;;;;3.38;1.30;;;;;;;20.71;62.96;102423.31;5046364;28;20060;-51
2023/09/24 10:09:37;;;;;;;3.30;1.55;;;;;;;20.70;60.01;102422.47;5046616;28;20029;-54
2023/09/24 10:12:07;;;;;;;4.60;1.40;;;;;;;20.80;61.54;102416.19;5050306;28;20037;-51
2023/09/24 10:14:37;;;;;;;2.25;1.38;;;;;;;20.87;60.24;102417.31;5046529;28;20017;-52
2023/09/24 10:17:24;;;;;;;3.80;1.30;;;;;;;20.97;63.25;102401.94;5048178;28;20037;-52
2023/09/24 10:19:54;;;;;;;3.45;1.60;;;;;;;20.96;59.16;102404.78;5049601;28;20025;-50
2023/09/24 10:22:30;;;;;;;5.63;1.70;;;;;;;21.05;62.15;102409.31;5050549;28;20031;-52
2023/09/24 10:24:56;;;;;;;5.30;1.58;;;;;;;21.12;57.43;102406.84;5038161;28;20033;-52
2023/09/24 10:27:27;;;;;;;4.13;1.45;;;;;;;21.16;57.95;102400.97;5047930;28;20028;-51
2023/09/24 10:29:53;;;;;;;3.65;1.50;;;;;;;21.20;58.70;102401.53;5049635;28;20021;-52
2023/09/24 10:32:21;;;;;;;5.00;1.50;;;;;;;21.38;56.36;102407.00;5045569;28;20016;-53
2023/09/24 10:34:55;;;;;;;3.53;1.50;;;;;;;21.53;58.59;102400.13;5048247;28;20033;-51
2023/09/24 10:37:29;;;;;;;3.90;1.60;;;;;;;21.72;60.73;102399.13;5050205;28;20491;-53
2023/09/24 10:42:30;;;;;;;3.03;1.73;;;;;;;21.93;55.17;102404.25;5048103;28;20037;-51
2023/09/24 10:45:08;;;;;;;8.05;1.50;;;;;;;22.03;57.70;102406.00;5052596;28;20021;-51
2023/09/24 10:47:43;;;;;;;3.15;1.40;;;;;;;22.07;55.62;102396.59;5047277;28;20466;-53
2023/09/24 10:50:25;;;;;;;5.35;1.88;;;;;;;22.07;53.88;102396.59;5045625;28;20387;-51
2023/09/24 10:52:54;;;;;;;5.40;1.52;;;;;;;22.22;57.48;102388.78;5049472;28;20033;-53
2023/09/24 10:55:20;;;;;;;;;;;;;;;22.50;62.39;102384.09;5051763;28;20040;-51
2023/09/24 10:57:50;;;;;;;5.30;1.83;;;;;;;22.38;55.56;102391.59;5047188;28;19917;-52
2023/09/24 11:00:22;;;;;;;4.80;2.08;;;;;;;22.47;53.99;102382.53;5049234;28;20429;-51
2023/09/24 11:02:54;;;;;;;1.90;1.25;;;;;;;22.67;55.38;102385.06;5046974;28;20025;-53
2023/09/24 11:05:20;;;;;;;4.70;2.03;;;;;;;22.78;54.18;102379.34;5051182;28;20048;-53
2023/09/24 11:07:45;;;;;;;4.07;1.58;;;;;;;22.86;53.78;102389.38;5049960;28;20438;-53
2023/09/24 11:10:11;;;;;;;4.57;1.50;;;;;;;22.93;50.92;102379.59;5049571;28;20033;-52
2023/09/24 11:12:37;;;;;;;4.90;1.45;;;;;;;22.89;51.81;102373.66;5049051;28;20496;-52
2023/09/24 11:15:03;;;;;;;5.60;1.58;;;;;;;22.88;49.57;102381.94;5049881;28;20032;-53
2023/09/24 11:17:29;;;;;;;2.38;1.50;;;;;;;22.91;50.97;102373.47;5050802;28;20079;-50
2023/09/24 11:19:54;;;;;;;3.95;1.20;;;;;;;22.92;51.69;102381.44;5044473;28;20539;-51
2023/09/24 11:22:28;;;;;;;2.95;1.60;;;;;;;23.07;52.46;102381.72;5047078;28;20078;-51